Time;durP1;ratioP1;P1;durP2;ratioP2;P2;SDS_P1;SDS_P2;PMS_P1;PMS_P2;Temp;Humidity;BMP_temperature;BMP_pressure;BME280_temperature;BME280_humidity;BME280_pressure;Samples;Min_cycle;Max_cycle;Signal;HPM_P1;HPM_P2
2022/04/17 00:01:49;;;;;;;1.35;0.30;;;;;;;24.29;48.34;103209.66;5052807;28;20057;-66
2022/04/17 00:04:15;;;;;;;0.90;0.28;;;;;;;24.29;48.14;103209.66;5052748;28;20021;-66
2022/04/17 00:06:41;;;;;;;0.68;0.30;;;;;;;24.29;48.47;103204.16;5052567;28;20100;-67
2022/04/17 00:09:07;;;;;;;1.90;0.25;;;;;;;24.27;48.21;103200.69;5052578;28;20032;-67
2022/04/17 00:11:35;;;;;;;1.38;0.38;;;;;;;24.27;48.38;103195.19;5052470;28;20020;-67
2022/04/17 00:14:00;;;;;;;0.57;0.25;;;;;;;24.29;48.70;103187.66;5052626;28;20029;-67
2022/04/17 00:16:26;;;;;;;2.35;0.32;;;;;;;24.28;47.38;103185.91;5052291;28;20040;-66
2022/04/17 00:18:51;;;;;;;1.15;0.30;;;;;;;24.28;48.72;103187.78;5052550;28;20025;-67
2022/04/17 00:21:16;;;;;;;1.83;0.40;;;;;;;24.27;49.51;103178.69;5034685;28;20071;-67
2022/04/17 00:23:44;;;;;;;0.68;0.40;;;;;;;24.24;48.23;103186.38;5052707;28;20388;-66
2022/04/17 00:26:10;;;;;;;1.30;0.30;;;;;;;24.22;48.50;103186.53;5052370;28;20013;-67
2022/04/17 00:28:35;;;;;;;0.65;0.17;;;;;;;24.21;48.92;103187.56;5052337;28;20036;-67
2022/04/17 00:31:00;;;;;;;1.20;0.63;;;;;;;24.23;48.37;103177.28;5052410;28;20047;-66
2022/04/17 00:33:26;;;;;;;2.30;0.40;;;;;;;24.26;49.54;103185.22;5052121;28;20044;-67
2022/04/17 00:35:51;;;;;;;1.85;0.60;;;;;;;24.25;48.88;103186.22;5053264;28;20480;-64
2022/04/17 00:38:17;;;;;;;2.22;0.25;;;;;;;24.21;49.77;103201.31;5062595;28;20029;-66
2022/04/17 00:40:42;;;;;;;3.55;0.30;;;;;;;24.22;48.35;103194.78;5056472;28;20047;-66
2022/04/17 00:43:33;;;;;;;1.63;0.30;;;;;;;24.21;48.89;103190.31;5056324;28;20025;-66
2022/04/17 00:45:59;;;;;;;1.42;0.35;;;;;;;24.20;48.53;103177.59;5056350;28;20025;-66
2022/04/17 00:48:25;;;;;;;1.00;0.30;;;;;;;24.21;49.06;103168.31;5056127;28;20108;-66
2022/04/17 00:50:54;;;;;;;1.77;0.60;;;;;;;24.21;48.98;103168.31;5056325;28;20025;-67
2022/04/17 00:53:21;;;;;;;2.83;0.43;;;;;;;24.20;49.10;103166.59;5055893;28;20052;-66
2022/04/17 00:55:48;;;;;;;1.02;0.20;;;;;;;24.21;48.09;103168.31;5056080;28;20025;-66
2022/04/17 00:58:14;;;;;;;2.80;0.30;;;;;;;24.23;48.53;103158.03;5055964;28;20361;-67
2022/04/17 01:00:43;;;;;;;1.80;0.43;;;;;;;24.20;47.13;103158.34;5055997;28;20079;-67
2022/04/17 01:03:12;;;;;;;0.57;0.28;;;;;;;24.19;49.69;103148.38;5055938;28;20384;-67
2022/04/17 01:05:42;;;;;;;1.25;0.63;;;;;;;24.17;48.05;103155.03;5055876;28;20021;-67
2022/04/17 01:08:08;;;;;;;1.58;0.45;;;;;;;24.17;47.95;103155.88;5055923;28;20028;-67
2022/04/17 01:10:34;;;;;;;1.25;0.17;;;;;;;24.18;48.60;103154.88;5055843;28;20017;-67
2022/04/17 01:13:02;;;;;;;2.05;0.68;;;;;;;24.18;48.56;103154.88;5057422;28;20112;-64
2022/04/17 01:15:29;;;;;;;1.35;0.30;;;;;;;24.19;49.43;103150.25;5038585;28;20044;-67
2022/04/17 01:17:54;;;;;;;0.30;0.28;;;;;;;24.17;46.75;103150.38;5055775;28;20048;-67
2022/04/17 01:20:21;;;;;;;1.38;0.40;;;;;;;24.17;48.58;103161.38;5065285;28;20021;-66
2022/04/17 01:22:48;;;;;;;0.30;0.20;;;;;;;24.17;49.38;103166.88;5055661;28;20025;-67
2022/04/17 01:27:57;;;;;;;1.90;0.28;;;;;;;24.15;48.00;103163.41;5055691;28;20035;-66
2022/04/17 01:30:22;;;;;;;1.88;0.30;;;;;;;24.14;49.15;103166.31;5055270;28;20372;-67
2022/04/17 01:32:48;;;;;;;1.27;0.35;;;;;;;24.15;49.29;103170.81;5037612;28;20040;-67
2022/04/17 01:35:13;;;;;;;0.90;0.30;;;;;;;24.15;48.08;103174.41;5055317;28;20029;-67
2022/04/17 01:37:38;;;;;;;1.67;0.30;;;;;;;24.14;47.68;103169.94;5055290;28;20029;-67
2022/04/17 01:40:04;;;;;;;0.90;0.20;;;;;;;24.14;48.91;103182.81;5055408;28;20021;-66
2022/04/17 01:42:29;;;;;;;2.20;0.30;;;;;;;24.14;48.77;103183.69;5055087;28;20029;-67
2022/04/17 01:44:56;;;;;;;0.40;0.20;;;;;;;24.13;48.82;103176.47;5055313;28;20056;-66
2022/04/17 01:47:21;;;;;;;1.92;0.60;;;;;;;24.14;49.26;103183.69;5055786;28;20096;-67
2022/04/17 01:49:47;;;;;;;0.90;0.28;;;;;;;24.13;49.50;103184.69;5053830;28;20061;-67
2022/04/17 01:52:12;;;;;;;0.85;0.32;;;;;;;24.14;48.78;103178.19;5055026;28;20048;-67
2022/04/17 01:54:38;;;;;;;1.27;0.28;;;;;;;24.12;46.93;103185.72;5055030;28;20463;-67
2022/04/17 01:57:03;;;;;;;1.15;0.32;;;;;;;24.12;48.91;103180.22;5036934;28;20031;-67
2022/04/17 01:59:29;;;;;;;1.95;0.22;;;;;;;24.11;48.73;103174.88;5055997;28;20025;-66
2022/04/17 02:01:54;;;;;;;0.85;0.22;;;;;;;24.11;49.95;103173.00;5063588;28;20025;-67
2022/04/17 02:04:20;;;;;;;1.65;0.57;;;;;;;24.10;48.17;103174.03;5054747;28;20036;-67
2022/04/17 02:06:47;;;;;;;3.35;0.68;;;;;;;24.12;49.57;103174.72;5054832;28;20091;-66
2022/04/17 02:09:14;;;;;;;1.08;0.30;;;;;;;24.11;48.47;103173.00;5054758;28;20021;-67
2022/04/17 02:11:41;;;;;;;0.65;0.22;;;;;;;24.09;47.76;103172.28;5054672;28;20066;-66
2022/04/17 02:14:08;;;;;;;1.75;0.30;;;;;;;24.09;47.96;103169.53;5054698;28;20029;-66
2022/04/17 02:16:33;;;;;;;0.60;0.17;;;;;;;24.09;48.97;103169.53;5054510;28;20474;-66
2022/04/17 02:19:00;;;;;;;1.42;0.40;;;;;;;24.08;48.78;103173.31;5056193;28;20036;-64
2022/04/17 02:21:25;;;;;;;1.73;0.30;;;;;;;24.09;49.24;103164.06;5054547;28;20055;-66
2022/04/17 02:23:51;;;;;;;1.42;0.20;;;;;;;24.10;48.72;103160.28;5054437;28;20373;-66
2022/04/17 02:26:17;;;;;;;2.55;0.68;;;;;;;24.08;49.08;103156.81;5036408;28;20020;-67
2022/04/17 02:28:42;;;;;;;1.05;0.43;;;;;;;24.10;49.23;103160.28;5054711;28;20033;-66
2022/04/17 02:31:09;;;;;;;1.52;0.22;;;;;;;24.09;49.25;103153.06;5054292;28;20029;-67
2022/04/17 02:33:36;;;;;;;1.55;0.43;;;;;;;24.10;49.39;103149.28;5054196;28;20456;-67
2022/04/17 02:36:01;;;;;;;1.55;0.40;;;;;;;24.09;49.41;103147.56;5054254;28;20108;-67
2022/04/17 02:38:27;;;;;;;2.00;0.40;;;;;;;24.07;49.64;103143.25;5054065;28;20115;-67
2022/04/17 02:40:53;;;;;;;1.48;0.45;;;;;;;24.06;49.03;103147.88;5059988;28;20028;-66
2022/04/17 02:43:18;;;;;;;1.50;0.30;;;;;;;24.08;49.23;103145.84;5036069;28;20031;-67
2022/04/17 02:45:44;;;;;;;1.58;0.43;;;;;;;24.06;50.37;103150.63;5054051;28;20025;-67
2022/04/17 02:48:09;;;;;;;2.15;0.45;;;;;;;24.09;49.62;103147.56;5054073;28;20017;-67
2022/04/17 02:50:35;;;;;;;1.45;0.40;;;;;;;24.07;49.20;103149.59;5053899;28;20272;-67
2022/04/17 02:53:01;;;;;;;0.63;0.20;;;;;;;24.06;49.71;103158.00;5054196;28;20170;-63
2022/04/17 02:55:26;;;;;;;1.65;0.52;;;;;;;24.06;49.04;103152.50;5055352;28;20028;-66
2022/04/17 02:57:52;;;;;;;0.88;0.20;;;;;;;24.03;47.79;103153.69;5053820;28;20025;-66
2022/04/17 03:00:18;;;;;;;1.50;0.38;;;;;;;24.06;49.47;103158.88;5053945;28;20468;-66
2022/04/17 03:05:36;;;;;;;1.50;0.50;;;;;;;24.07;49.06;103146.00;5053524;28;20527;-66
2022/04/17 03:08:02;;;;;;;1.00;0.32;;;;;;;24.08;49.08;103151.34;5053730;28;20025;-67
2022/04/17 03:10:27;;;;;;;0.52;0.30;;;;;;;24.09;50.78;103147.56;5053378;28;20031;-67
2022/04/17 03:12:53;;;;;;;0.90;0.50;;;;;;;24.04;48.75;103147.16;5053653;28;20017;-67
2022/04/17 03:15:18;;;;;;;0.45;0.20;;;;;;;24.03;49.89;103142.69;5053704;28;20028;-67
2022/04/17 03:17:43;;;;;;;2.00;0.55;;;;;;;24.06;50.25;103153.38;5055606;28;20025;-66
2022/04/17 03:20:09;;;;;;;0.82;0.30;;;;;;;24.03;49.95;103153.69;5053436;28;20039;-67
2022/04/17 03:22:35;;;;;;;1.92;0.30;;;;;;;24.06;49.27;103150.63;5053312;28;20043;-66
2022/04/17 03:25:01;;;;;;;1.75;0.43;;;;;;;24.05;49.89;103159.88;5053418;28;20016;-67
2022/04/17 03:27:28;;;;;;;2.70;0.93;;;;;;;24.03;49.77;103153.69;5053109;28;20024;-66
2022/04/17 03:29:54;;;;;;;2.00;0.40;;;;;;;24.05;48.94;103162.63;5054111;28;20060;-64
2022/04/17 03:32:19;;;;;;;2.13;0.55;;;;;;;24.04;48.65;103160.91;5035537;28;20079;-66
2022/04/17 03:34:45;;;;;;;2.90;0.95;;;;;;;24.03;49.72;103164.69;5053165;28;20033;-67
2022/04/17 03:37:10;;;;;;;3.72;0.63;;;;;;;24.03;48.06;103158.31;5053049;28;20021;-66
2022/04/17 03:39:36;;;;;;;2.72;0.50;;;;;;;24.05;50.20;103168.13;5053007;28;20039;-67
2022/04/17 03:42:02;;;;;;;3.97;0.95;;;;;;;24.04;49.05;103169.16;5053387;28;20053;-66
2022/04/17 03:44:27;;;;;;;1.35;0.38;;;;;;;24.04;49.33;103171.91;5052768;28;20532;-66
2022/04/17 03:46:53;;;;;;;3.25;0.52;;;;;;;24.05;48.67;103168.13;5053043;28;20025;-66
2022/04/17 03:49:18;;;;;;;2.10;0.68;;;;;;;24.03;48.26;103170.16;5052796;28;20376;-66
2022/04/17 03:51:44;;;;;;;3.45;0.47;;;;;;;24.04;48.93;103163.66;5060853;28;20028;-66
2022/04/17 03:54:09;;;;;;;2.85;0.50;;;;;;;24.05;49.57;103168.13;5052815;28;20075;-66
2022/04/17 03:56:34;;;;;;;1.98;0.65;;;;;;;24.03;49.46;103164.69;5052600;28;20022;-66
2022/04/17 03:59:01;;;;;;;1.75;0.40;;;;;;;24.04;50.09;103169.16;5052750;28;20033;-66
2022/04/17 04:01:27;;;;;;;0.85;0.40;;;;;;;24.06;49.20;103164.38;5053022;28;20439;-66
2022/04/17 04:03:53;;;;;;;1.45;0.20;;;;;;;24.23;49.07;103166.28;5053132;28;20107;-70
2022/04/17 04:06:20;;;;;;;1.45;0.22;;;;;;;24.30;49.82;103156.41;5051247;28;20013;-66
2022/04/17 04:08:45;;;;;;;0.52;0.10;;;;;;;24.34;47.93;103156.09;5052701;28;20035;-68
2022/04/17 04:11:11;;;;;;;1.50;0.20;;;;;;;24.39;48.22;103164.75;5052594;28;20020;-71
2022/04/17 04:13:36;;;;;;;2.20;0.28;;;;;;;24.39;46.66;103164.75;5051842;28;20040;-70
2022/04/17 04:16:02;;;;;;;0.50;0.10;;;;;;;24.43;47.87;103160.66;5052567;28;20032;-68
2022/04/17 04:18:27;;;;;;;0.90;0.20;;;;;;;24.41;47.30;103169.06;5034517;28;20064;-72
2022/04/17 04:20:53;;;;;;;0.30;0.17;;;;;;;24.43;45.55;103171.66;5052522;28;20021;-70
2022/04/17 04:23:21;;;;;;;1.25;0.20;;;;;;;24.42;46.69;103175.44;5052344;28;20104;-67
2022/04/17 04:25:46;;;;;;;0.20;0.03;;;;;;;24.45;47.85;103169.63;5052478;28;20031;-68
2022/04/17 04:30:55;;;;;;;0.80;0.17;;;;;;;24.45;46.52;103172.38;5052708;28;20117;-71
2022/04/17 04:33:21;;;;;;;1.13;0.40;;;;;;;24.46;46.83;103176.84;5052257;28;20337;-69
2022/04/17 04:35:46;;;;;;;0.77;0.20;;;;;;;24.48;46.55;103181.16;5052278;28;20423;-67
2022/04/17 04:38:11;;;;;;;0.68;0.25;;;;;;;24.47;46.28;103186.81;5052305;28;20029;-69
2022/04/17 04:40:37;;;;;;;1.73;0.20;;;;;;;24.49;46.91;103191.16;5060332;28;20028;-68
2022/04/17 04:43:03;;;;;;;1.08;0.20;;;;;;;24.52;46.02;103187.22;5056771;28;20071;-70
2022/04/17 04:48:14;;;;;;;0.65;0.10;;;;;;;24.54;46.45;103182.44;5052500;28;20082;-67
2022/04/17 04:50:39;;;;;;;0.43;0.10;;;;;;;24.56;46.35;103183.16;5052192;28;20387;-71
2022/04/17 04:53:05;;;;;;;0.45;0.13;;;;;;;24.55;46.50;103184.16;5052141;28;20583;-71
2022/04/17 04:55:31;;;;;;;0.22;0.05;;;;;;;24.56;46.94;103183.16;5051979;28;20397;-69
2022/04/17 04:57:56;;;;;;;0.65;0.10;;;;;;;24.56;47.58;103183.16;5034144;28;20021;-67
2022/04/17 05:00:21;;;;;;;0.60;0.20;;;;;;;24.54;46.42;103182.44;5051881;28;20070;-71
2022/04/17 05:02:47;;;;;;;0.77;0.28;;;;;;;24.55;46.71;103184.16;5055460;28;20029;-71
2022/04/17 05:05:12;;;;;;;0.17;0.10;;;;;;;24.57;46.59;103184.88;5052060;28;20033;-69
2022/04/17 05:07:37;;;;;;;0.45;0.10;;;;;;;24.58;46.38;103181.09;5051903;28;20025;-67
2022/04/17 05:10:04;;;;;;;0.63;0.10;;;;;;;24.59;46.04;103171.81;5052078;28;20075;-69
2022/04/17 05:12:29;;;;;;;0.35;0.20;;;;;;;24.60;47.08;103181.81;5033894;28;20021;-71
2022/04/17 05:14:55;;;;;;;1.35;0.10;;;;;;;24.62;45.14;103187.16;5052119;28;20108;-70
2022/04/17 05:17:20;;;;;;;0.50;0.20;;;;;;;24.61;47.31;103194.53;5052204;28;20046;-68
2022/04/17 05:19:45;;;;;;;0.13;0.10;;;;;;;24.63;45.63;103188.88;5051990;28;20373;-69
2022/04/17 05:22:15;;;;;;;0.25;0.10;;;;;;;24.60;45.58;103195.56;5051824;28;20030;-72
2022/04/17 05:24:44;;;;;;;0.55;0.20;;;;;;;24.63;45.82;103192.50;5053406;28;20052;-70
2022/04/17 05:27:10;;;;;;;0.32;0.13;;;;;;;24.60;46.08;103190.06;5055612;28;20097;-68
2022/04/17 05:29:36;;;;;;;0.85;0.15;;;;;;;24.63;45.03;103184.25;5055796;28;20479;-67
2022/04/17 05:32:01;;;;;;;0.17;0.10;;;;;;;24.63;45.06;103178.72;5055643;28;20033;-73
2022/04/17 05:34:27;;;;;;;0.90;0.45;;;;;;;24.60;46.28;103179.91;5055328;28;20567;-71
2022/04/17 05:36:53;;;;;;;0.75;0.20;;;;;;;24.64;44.92;103180.47;5061102;28;20025;-69
2022/04/17 05:39:18;;;;;;;0.50;0.30;;;;;;;24.64;45.62;103185.97;5055254;28;20071;-68
2022/04/17 05:41:44;;;;;;;1.15;0.20;;;;;;;24.67;45.66;103182.91;5055405;28;20032;-72
2022/04/17 05:44:11;;;;;;;0.60;0.10;;;;;;;24.65;47.11;103184.94;5037478;28;20036;-71
2022/04/17 05:46:36;;;;;;;0.40;0.20;;;;;;;24.67;44.67;103185.66;5055751;28;20028;-69
2022/04/17 05:49:05;;;;;;;0.75;0.10;;;;;;;24.69;46.56;103186.38;5055304;28;20380;-68
2022/04/17 05:51:35;;;;;;;0.13;0.00;;;;;;;24.67;46.91;103182.91;5055092;28;20076;-71
2022/04/17 05:54:05;;;;;;;0.10;0.10;;;;;;;24.68;45.67;103181.88;5077064;28;20040;-69
2022/04/17 05:56:31;;;;;;;0.05;0.00;;;;;;;24.69;46.05;103189.13;5061544;28;20063;-70
2022/04/17 05:58:56;;;;;;;0.63;0.10;;;;;;;24.68;45.63;103181.88;5055024;28;20021;-68
2022/04/17 06:01:21;;;;;;;0.63;0.03;;;;;;;24.68;44.96;103179.13;5054925;28;20515;-69
2022/04/17 06:03:47;;;;;;;0.50;0.15;;;;;;;24.68;46.58;103190.13;5054953;28;20507;-71
2022/04/17 06:06:12;;;;;;;0.45;0.15;;;;;;;24.72;46.87;103185.19;5057387;28;20033;-69
2022/04/17 06:08:38;;;;;;;0.50;0.10;;;;;;;24.70;45.72;103179.84;5054778;28;20407;-68
2022/04/17 06:11:03;;;;;;;0.40;0.00;;;;;;;24.71;44.66;103187.09;5054869;28;20025;-68
2022/04/17 06:13:28;;;;;;;0.73;0.20;;;;;;;24.69;46.65;103186.38;5054625;28;20483;-71
2022/04/17 06:15:54;;;;;;;1.98;0.28;;;;;;;24.68;47.02;103184.63;5054633;28;20078;-71
2022/04/17 06:18:19;;;;;;;0.32;0.10;;;;;;;24.73;46.09;103179.53;5054647;28;20032;-68
2022/04/17 06:20:45;;;;;;;0.85;0.10;;;;;;;24.75;46.62;103182.97;5054683;28;20029;-68
2022/04/17 06:23:10;;;;;;;0.30;0.10;;;;;;;24.75;45.91;103176.63;5054538;28;20057;-72
2022/04/17 06:25:35;;;;;;;1.75;0.20;;;;;;;24.76;45.16;103178.34;5054431;28;20111;-70
2022/04/17 06:28:01;;;;;;;0.30;0.30;;;;;;;24.75;46.68;103182.97;5036609;28;20012;-68
2022/04/17 06:30:27;;;;;;;0.93;0.10;;;;;;;24.73;45.89;103168.53;5054877;28;20520;-68
2022/04/17 06:32:52;;;;;;;0.25;0.13;;;;;;;24.72;47.32;103172.31;5054546;28;20024;-72
2022/04/17 06:35:17;;;;;;;0.40;0.15;;;;;;;24.75;46.55;103166.47;5036031;28;20354;-70
2022/04/17 06:37:53;;;;;;;1.75;0.25;;;;;;;24.78;45.79;103162.53;5036193;28;20025;-67
2022/04/17 06:40:31;;;;;;;0.77;0.10;;;;;;;24.73;46.89;103162.16;5054110;28;20472;-68
2022/04/17 06:43:05;;;;;;;0.73;0.15;;;;;;;24.75;45.87;103155.47;5055041;28;20020;-70
2022/04/17 06:45:33;;;;;;;0.65;0.13;;;;;;;24.74;46.25;103159.25;5056332;28;20067;-71
2022/04/17 06:48:13;;;;;;;2.17;0.20;;;;;;;24.75;45.72;103149.97;5054133;28;20104;-69
2022/04/17 06:50:39;;;;;;;0.10;0.00;;;;;;;24.81;44.66;103148.47;5054023;28;20514;-68
2022/04/17 06:53:04;;;;;;;0.73;0.10;;;;;;;24.78;46.01;103151.53;5054011;28;20053;-68
2022/04/17 06:55:30;;;;;;;0.22;0.10;;;;;;;24.76;46.65;103145.34;5053763;28;20021;-72
2022/04/17 06:57:55;;;;;;;0.50;0.10;;;;;;;24.75;46.64;103146.34;5053821;28;20369;-71
2022/04/17 07:00:22;;;;;;;0.60;0.10;;;;;;;24.85;44.53;103145.22;5035803;28;20056;-68
2022/04/17 07:02:48;;;;;;;0.50;0.20;;;;;;;24.80;45.84;103150.34;5053863;28;20032;-68
2022/04/17 07:05:14;;;;;;;0.40;0.10;;;;;;;24.76;46.23;103148.94;5070611;28;20013;-68
2022/04/17 07:07:40;;;;;;;1.67;0.20;;;;;;;24.79;45.86;103145.00;5067682;28;20036;-70
2022/04/17 07:10:07;;;;;;;0.90;0.10;;;;;;;24.78;47.77;103144.16;5053705;28;20032;-68
2022/04/17 07:12:34;;;;;;;0.40;0.10;;;;;;;24.76;46.89;103148.94;5053493;28;20036;-71
2022/04/17 07:15:00;;;;;;;0.30;0.10;;;;;;;24.78;46.51;103143.28;5053690;28;20074;-71
2022/04/17 07:17:34;;;;;;;0.70;0.20;;;;;;;24.77;45.98;103141.56;5035396;28;20025;-69
2022/04/17 07:19:59;;;;;;;0.25;0.10;;;;;;;24.80;46.23;103147.59;5053649;28;20476;-68
2022/04/17 07:22:24;;;;;;;0.73;0.22;;;;;;;24.80;45.03;103147.59;5056922;28;20028;-73
2022/04/17 07:24:53;;;;;;;0.50;0.30;;;;;;;24.79;47.09;103148.63;5053446;28;20075;-72
2022/04/17 07:27:20;;;;;;;0.95;0.20;;;;;;;24.82;48.04;103155.69;5053299;28;20021;-68
2022/04/17 07:29:45;;;;;;;0.57;0.17;;;;;;;24.81;45.70;103154.81;5035461;28;20021;-68
2022/04/17 07:32:11;;;;;;;0.60;0.20;;;;;;;24.82;45.68;103156.56;5053278;28;20063;-72
2022/04/17 07:34:36;;;;;;;0.90;0.10;;;;;;;24.81;44.73;103163.09;5053093;28;20021;-70
2022/04/17 07:37:01;;;;;;;0.30;0.13;;;;;;;24.79;44.80;103164.25;5056496;28;20029;-65
2022/04/17 07:39:26;;;;;;;0.35;0.10;;;;;;;24.83;46.07;103157.41;5077026;28;20033;-70
2022/04/17 07:41:52;;;;;;;0.90;0.13;;;;;;;24.80;45.76;103155.84;5061065;28;20056;-70
2022/04/17 07:44:17;;;;;;;0.40;0.20;;;;;;;24.80;46.23;103152.25;5052905;28;20031;-68
2022/04/17 07:46:42;;;;;;;0.95;0.20;;;;;;;24.81;46.48;103151.22;5052937;28;20029;-69
2022/04/17 07:49:09;;;;;;;1.45;0.45;;;;;;;24.82;45.90;103145.56;5053013;28;20029;-71
2022/04/17 07:51:35;;;;;;;1.42;0.10;;;;;;;24.81;46.81;103140.22;5034820;28;20024;-69
2022/04/17 07:54:01;;;;;;;0.15;0.10;;;;;;;24.82;45.74;103141.94;5054777;28;20118;-68
2022/04/17 07:56:26;;;;;;;0.93;0.20;;;;;;;24.82;44.76;103145.56;5053980;28;20036;-73
2022/04/17 07:58:52;;;;;;;0.70;0.08;;;;;;;24.80;47.54;103142.09;5052690;28;20029;-71
2022/04/17 08:01:17;;;;;;;0.65;0.10;;;;;;;24.82;46.50;103145.56;5052674;28;20029;-68
2022/04/17 08:03:46;;;;;;;1.13;0.30;;;;;;;24.82;46.82;103150.19;5052757;28;20484;-69
2022/04/17 08:06:17;;;;;;;0.90;0.20;;;;;;;24.83;46.46;103152.78;5052695;28;20021;-71
2022/04/17 08:08:44;;;;;;;0.95;0.15;;;;;;;24.83;46.06;103147.28;5071575;28;20113;-66
2022/04/17 08:11:10;;;;;;;0.20;0.10;;;;;;;24.82;45.68;103156.56;5062971;28;20041;-68
2022/04/17 08:13:36;;;;;;;1.58;0.10;;;;;;;24.84;45.69;103154.50;5052854;28;20024;-74
2022/04/17 08:16:04;;;;;;;1.15;0.10;;;;;;;24.84;43.66;103153.63;5034695;28;20391;-71
2022/04/17 08:18:30;;;;;;;1.23;0.60;;;;;;;24.85;45.77;103156.22;5034433;28;20025;-68
2022/04/17 08:20:55;;;;;;;0.30;0.10;;;;;;;24.83;46.62;103158.28;5052554;28;20036;-69
2022/04/17 08:23:20;;;;;;;0.30;0.03;;;;;;;24.79;46.92;103154.13;5034435;28;20372;-72
2022/04/17 08:25:46;;;;;;;0.73;0.10;;;;;;;24.85;46.02;103150.72;5052441;28;20109;-69
2022/04/17 08:28:12;;;;;;;1.13;0.10;;;;;;;24.82;46.12;103153.81;5052691;28;20456;-67
2022/04/17 08:30:37;;;;;;;0.20;0.10;;;;;;;24.84;44.97;103151.75;5052267;28;20052;-72
2022/04/17 08:33:06;;;;;;;0.10;0.10;;;;;;;24.85;47.29;103153.47;5043052;28;20009;-70
2022/04/17 08:35:31;;;;;;;0.30;0.10;;;;;;;24.85;44.36;103145.22;5053104;28;20023;-68
2022/04/17 08:38:03;;;;;;;0.28;0.08;;;;;;;24.85;45.22;103155.38;5052331;28;20020;-70
2022/04/17 08:40:29;;;;;;;0.43;0.10;;;;;;;24.85;44.63;103156.22;5048363;28;20013;-69
2022/04/17 08:42:55;;;;;;;0.75;0.00;;;;;;;24.83;47.37;103158.28;5076120;28;20047;-65
2022/04/17 08:45:21;;;;;;;0.15;0.10;;;;;;;24.82;47.09;103145.56;5056199;28;20040;-67
2022/04/17 08:47:47;;;;;;;1.30;0.10;;;;;;;24.83;45.59;103147.28;5052241;28;20021;-73
2022/04/17 08:50:14;;;;;;;0.20;0.13;;;;;;;24.81;46.05;103143.81;5052152;28;20036;-69
2022/04/17 08:52:41;;;;;;;2.03;0.32;;;;;;;24.85;45.04;103144.34;5051938;28;20383;-68
2022/04/17 08:55:07;;;;;;;0.77;0.22;;;;;;;24.85;44.83;103150.72;5052286;28;20025;-75
2022/04/17 08:57:33;;;;;;;1.42;0.10;;;;;;;24.89;46.03;103151.28;5034325;28;20024;-71
2022/04/17 08:59:58;;;;;;;0.40;0.25;;;;;;;24.84;47.20;103146.25;5036399;28;20115;-69
2022/04/17 09:02:23;;;;;;;1.38;0.10;;;;;;;24.83;45.08;103150.03;5055868;28;20037;-69
2022/04/17 09:04:49;;;;;;;0.20;0.10;;;;;;;24.84;47.25;103143.50;5056108;28;20025;-72
2022/04/17 09:07:14;;;;;;;0.63;0.03;;;;;;;24.87;44.15;103143.22;5055928;28;20017;-70
2022/04/17 09:09:50;;;;;;;0.50;0.13;;;;;;;24.85;44.97;103138.84;5055921;28;20552;-69
2022/04/17 09:12:28;;;;;;;0.65;0.20;;;;;;;24.84;45.41;103137.13;5058555;28;20108;-69
2022/04/17 09:14:56;;;;;;;0.30;0.08;;;;;;;24.83;45.84;103130.75;5079546;28;20072;-69
2022/04/17 09:17:33;;;;;;;0.15;0.05;;;;;;;24.83;47.06;103129.91;5051142;28;20361;-69
2022/04/17 09:19:59;;;;;;;0.47;0.25;;;;;;;24.82;46.18;103129.03;5055811;28;20144;-69
2022/04/17 09:22:25;;;;;;;1.08;0.30;;;;;;;24.84;46.64;103135.25;5037575;28;20107;-75
2022/04/17 09:24:51;;;;;;;0.75;0.15;;;;;;;24.81;45.42;103124.56;5055793;28;20094;-70
2022/04/17 09:27:17;;;;;;;0.30;0.10;;;;;;;24.87;43.50;103126.69;5055544;28;20504;-68
2022/04/17 09:29:42;;;;;;;0.75;0.10;;;;;;;24.88;46.96;103119.31;5055558;28;20025;-76
2022/04/17 09:32:12;;;;;;;0.00;0.00;;;;;;;24.88;46.63;103111.91;5055599;28;20032;-72
2022/04/17 09:34:58;;;;;;;0.90;0.10;;;;;;;24.87;46.40;103115.69;5037526;28;20174;-69
2022/04/17 09:37:25;;;;;;;1.05;0.13;;;;;;;24.80;44.47;103109.09;5037264;28;20602;-68
2022/04/17 09:39:54;;;;;;;0.55;0.10;;;;;;;24.86;44.45;103105.72;5037509;28;20158;-74
2022/04/17 09:42:21;;;;;;;0.35;0.10;;;;;;;24.83;46.12;103097.75;5051050;28;20064;-68
2022/04/17 09:44:47;;;;;;;0.00;0.00;;;;;;;24.86;46.60;103091.94;5077545;28;20033;-68
2022/04/17 09:47:23;;;;;;;0.30;0.10;;;;;;;24.82;46.70;103087.78;5055172;28;20027;-75
2022/04/17 09:49:54;;;;;;;1.60;0.20;;;;;;;24.82;47.44;103090.53;5055224;28;20372;-72
2022/04/17 09:52:20;;;;;;;0.45;0.20;;;;;;;24.88;47.12;103094.53;5054711;28;20033;-68
2022/04/17 09:54:47;;;;;;;0.17;0.05;;;;;;;24.83;47.04;103089.50;5055432;28;20115;-69
2022/04/17 09:57:18;;;;;;;1.65;0.20;;;;;;;24.86;46.30;103086.44;5059005;28;20051;-72
2022/04/17 09:59:43;;;;;;;0.45;0.10;;;;;;;24.85;46.02;103075.56;5055082;28;20025;-70
2022/04/17 10:02:12;;;;;;;0.52;0.10;;;;;;;24.86;44.88;103075.44;5054967;28;20029;-68
2022/04/17 10:04:39;;;;;;;0.52;0.20;;;;;;;24.86;46.72;103069.94;5037045;28;20016;-74
2022/04/17 10:07:05;;;;;;;0.20;0.10;;;;;;;24.88;45.82;103072.53;5037067;28;20024;-71
2022/04/17 10:09:32;;;;;;;0.15;0.13;;;;;;;24.88;46.57;103073.38;5054672;28;20056;-70
2022/04/17 10:11:59;;;;;;;0.22;0.10;;;;;;;24.86;46.15;103072.69;5053672;28;20035;-69
2022/04/17 10:14:27;;;;;;;0.25;0.20;;;;;;;24.85;47.50;103067.31;5036762;28;20025;-73
2022/04/17 10:16:55;;;;;;;2.38;0.20;;;;;;;24.86;47.14;103064.44;5036773;28;20123;-69
2022/04/17 10:19:21;;;;;;;2.03;0.57;;;;;;;24.86;46.82;103061.69;5057263;28;20021;-65
2022/04/17 10:21:47;;;;;;;0.50;0.10;;;;;;;24.86;46.33;103056.19;5066425;28;20025;-72
2022/04/17 10:24:15;;;;;;;0.50;0.10;;;;;;;24.85;45.53;103057.19;5036552;28;20021;-71
2022/04/17 10:26:49;;;;;;;0.20;0.10;;;;;;;24.86;46.83;103052.56;5036899;28;20017;-68
2022/04/17 10:29:31;;;;;;;;;;;;;;;24.86;45.74;103047.06;5054846;28;20036;-70
2022/04/17 10:32:36;;;;;;;0.47;0.08;;;;;;;24.89;47.24;103041.22;5054478;28;19915;-74
2022/04/17 10:35:05;;;;;;;;;;;;;;;24.87;46.55;103037.78;5054811;28;20025;-73
2022/04/17 10:37:56;;;;;;;0.55;0.13;;;;;;;24.88;46.04;103029.38;5041527;28;19913;-69
2022/04/17 10:40:23;;;;;;;1.17;0.20;;;;;;;24.87;45.48;103022.13;4977183;28;20057;-69
2022/04/17 10:42:57;;;;;;;0.32;0.05;;;;;;;24.89;46.84;103020.09;4976290;28;20073;-73
2022/04/17 10:45:23;;;;;;;0.70;0.10;;;;;;;24.86;47.14;103014.91;4975969;28;20034;-72
2022/04/17 10:48:09;;;;;;;1.13;0.20;;;;;;;24.85;47.83;103013.16;4992613;28;20545;-69
2022/04/17 10:50:40;;;;;;;0.80;0.15;;;;;;;24.87;43.85;103013.88;4992245;28;20037;-68
2022/04/17 10:53:28;;;;;;;0.45;0.10;;;;;;;24.87;46.44;103011.13;4992268;28;20051;-75
2022/04/17 10:56:05;;;;;;;0.65;0.17;;;;;;;24.88;45.18;103004.59;5010155;28;20041;-71
2022/04/17 10:58:41;;;;;;;0.10;0.10;;;;;;;24.88;44.64;103007.34;4985382;28;20174;-70
2022/04/17 11:01:09;;;;;;;0.60;0.00;;;;;;;24.88;45.22;102996.34;4992382;28;20101;-68
2022/04/17 11:03:35;;;;;;;0.85;0.50;;;;;;;24.87;46.75;103004.78;4992025;28;20061;-73
2022/04/17 11:06:24;;;;;;;0.32;0.10;;;;;;;24.89;46.85;102998.06;4992201;28;20049;-71
2022/04/17 11:08:57;;;;;;;0.10;0.10;;;;;;;24.89;45.34;102992.56;4975932;28;20034;-69
2022/04/17 11:11:32;;;;;;;1.38;0.35;;;;;;;24.89;45.83;102989.81;4991753;28;20461;-68
2022/04/17 11:14:07;;;;;;;0.20;0.20;;;;;;;24.86;45.03;102992.91;4997187;28;20094;-73
2022/04/17 11:16:44;;;;;;;0.75;0.20;;;;;;;24.88;46.60;102985.34;5001689;28;20025;-72
2022/04/17 11:19:11;;;;;;;0.35;0.13;;;;;;;24.86;46.52;102981.03;5035717;28;20131;-69
2022/04/17 11:21:40;;;;;;;1.30;0.30;;;;;;;24.89;45.68;102984.31;5053141;28;20476;-70
2022/04/17 11:24:05;;;;;;;1.13;0.30;;;;;;;24.92;46.64;102987.75;5053350;28;20447;-72
2022/04/17 11:26:52;;;;;;;1.25;0.32;;;;;;;24.89;46.57;102981.56;5053239;28;20147;-70
2022/04/17 11:29:37;;;;;;;0.40;0.10;;;;;;;24.89;45.21;102992.56;5035734;28;20029;-66
2022/04/17 11:32:23;;;;;;;0.88;0.20;;;;;;;24.88;47.18;102977.09;5067392;28;20043;-70
2022/04/17 11:34:53;;;;;;;0.35;0.10;;;;;;;24.90;47.07;102982.44;5053120;28;20039;-75
2022/04/17 11:37:31;;;;;;;0.45;0.10;;;;;;;24.89;45.20;102978.81;5052932;28;20024;-72
2022/04/17 11:40:08;;;;;;;0.30;0.10;;;;;;;24.85;45.36;102974.63;5035338;28;20073;-69